createdAt,value
2018-08-18T00:02:24.188Z,23.60
2018-08-18T00:05:05.730Z,23.60
2018-08-18T00:07:47.027Z,23.60
2018-08-18T00:10:27.725Z,23.60
2018-08-18T00:13:08.306Z,23.60
2018-08-18T00:15:49.785Z,23.60
2018-08-18T00:18:31.245Z,23.60
2018-08-18T00:21:11.993Z,23.50
2018-08-18T00:23:53.439Z,23.40
2018-08-18T00:26:34.877Z,23.40
2018-08-18T00:29:15.433Z,23.40
2018-08-18T00:31:56.184Z,23.50
2018-08-18T00:34:41.230Z,23.50
2018-08-18T00:37:22.745Z,23.50
2018-08-18T00:40:04.254Z,23.50
2018-08-18T00:42:45.702Z,23.40
2018-08-18T00:45:26.368Z,23.40
2018-08-18T00:48:07.006Z,23.40
2018-08-18T00:50:47.725Z,23.30
2018-08-18T00:53:29.184Z,23.30
2018-08-18T00:56:09.960Z,23.40
2018-08-18T00:58:52.228Z,23.40
2018-08-18T01:01:32.941Z,23.40
2018-08-18T01:04:13.671Z,23.50
2018-08-18T01:06:54.331Z,23.50
2018-08-18T01:09:35.790Z,23.50
2018-08-18T01:12:16.469Z,23.60
2018-08-18T01:14:57.425Z,23.60
2018-08-18T01:17:38.745Z,23.60
2018-08-18T01:20:20.302Z,23.60
2018-08-18T01:23:02.173Z,23.60
2018-08-18T01:25:43.213Z,23.60
2018-08-18T01:28:23.880Z,23.60
2018-08-18T01:31:05.846Z,23.60
2018-08-18T01:33:47.166Z,23.60
2018-08-18T01:36:28.668Z,23.60
2018-08-18T01:39:09.444Z,23.50
2018-08-18T01:41:50.769Z,23.50
2018-08-18T01:44:31.284Z,23.40
2018-08-18T01:47:12.092Z,23.40
2018-08-18T01:49:53.478Z,23.30
2018-08-18T01:52:34.175Z,23.30
2018-08-18T01:55:15.812Z,23.30
2018-08-18T01:57:57.307Z,23.30
2018-08-18T02:00:37.992Z,23.20
2018-08-18T02:03:18.724Z,23.20
2018-08-18T02:05:59.277Z,23.10
2018-08-18T02:08:42.757Z,23.10
2018-08-18T02:11:24.807Z,23.10
2018-08-18T02:14:06.166Z,23.10
2018-08-18T02:16:46.706Z,23.00
2018-08-18T02:19:27.202Z,23.00
2018-08-18T02:22:07.894Z,22.90
2018-08-18T02:24:49.327Z,22.90
2018-08-18T02:27:30.019Z,22.90
2018-08-18T02:30:10.714Z,22.80
2018-08-18T02:32:51.595Z,22.80
2018-08-18T02:35:32.913Z,22.90
2018-08-18T02:38:13.452Z,22.90
2018-08-18T02:40:54.069Z,22.90
2018-08-18T02:43:34.633Z,22.90
2018-08-18T02:46:18.314Z,22.80
2018-08-18T02:48:59.412Z,22.80
2018-08-18T02:51:40.554Z,22.80
2018-08-18T02:54:22.249Z,22.80
2018-08-18T02:57:02.870Z,22.70
2018-08-18T02:59:44.821Z,22.70
2018-08-18T03:02:25.965Z,22.70
2018-08-18T03:05:07.268Z,22.70
2018-08-18T03:07:51.901Z,22.60
2018-08-18T03:10:32.444Z,22.60
2018-08-18T03:13:13.085Z,22.60
2018-08-18T03:15:53.700Z,22.70
2018-08-18T03:18:35.126Z,22.70
2018-08-18T03:21:17.094Z,22.70
2018-08-18T03:23:58.713Z,22.70
2018-08-18T03:26:41.996Z,22.80
2018-08-18T03:29:24.472Z,22.80
2018-08-18T03:32:04.960Z,22.90
2018-08-18T03:34:45.841Z,22.80
2018-08-18T03:37:26.454Z,22.80
2018-08-18T03:40:07.957Z,22.80
2018-08-18T03:42:49.357Z,22.90
2018-08-18T03:45:30.816Z,22.90
2018-08-18T03:48:11.339Z,23.00
2018-08-18T03:50:52.681Z,23.00
2018-08-18T03:53:33.684Z,23.10
2018-08-18T03:56:14.322Z,23.10
2018-08-18T03:58:55.980Z,23.10
2018-08-18T04:01:38.080Z,23.10
2018-08-18T04:04:20.050Z,23.10
2018-08-18T04:09:48.356Z,23.10
2018-08-18T04:12:29.654Z,23.10
2018-08-18T04:15:10.258Z,23.10
2018-08-18T04:17:51.793Z,23.00
2018-08-18T04:20:33.279Z,23.00
2018-08-18T04:23:14.676Z,23.00
2018-08-18T04:25:55.714Z,22.90
2018-08-18T04:28:36.876Z,22.90
2018-08-18T04:31:21.733Z,22.90
2018-08-18T04:34:04.421Z,22.90
2018-08-18T04:36:45.173Z,22.80
2018-08-18T04:39:27.538Z,22.70
2018-08-18T04:42:08.250Z,22.60
2018-08-18T04:44:48.910Z,22.60
2018-08-18T04:47:31.321Z,22.50
2018-08-18T04:50:11.997Z,22.50
2018-08-18T04:52:52.731Z,22.40
2018-08-18T04:55:34.195Z,22.40
2018-08-18T04:58:14.886Z,22.30
2018-08-18T05:00:55.473Z,22.30
2018-08-18T05:03:36.989Z,22.20
2018-08-18T05:06:17.800Z,22.10
2018-08-18T05:09:00.740Z,22.00
2018-08-18T05:11:41.437Z,21.90
2018-08-18T05:14:21.985Z,21.80
2018-08-18T05:17:02.554Z,21.80
2018-08-18T05:19:43.228Z,21.70
2018-08-18T05:22:24.775Z,21.60
2018-08-18T05:25:05.319Z,21.60
2018-08-18T05:27:45.898Z,21.50
2018-08-18T05:30:26.564Z,21.50
2018-08-18T05:33:08.097Z,21.50
2018-08-18T05:35:49.527Z,21.40
2018-08-18T05:38:31.031Z,21.50
2018-08-18T05:41:11.995Z,21.50
2018-08-18T05:43:53.111Z,21.50
2018-08-18T05:46:34.621Z,21.40
2018-08-18T05:49:17.100Z,21.50
2018-08-18T05:51:57.956Z,21.50
2018-08-18T05:54:39.262Z,21.90
2018-08-18T05:57:20.047Z,22.20
2018-08-18T06:00:00.895Z,22.60
2018-08-18T06:02:46.335Z,22.80
2018-08-18T06:05:27.023Z,23.00
2018-08-18T06:08:07.588Z,23.00
2018-08-18T06:10:48.264Z,23.10
2018-08-18T06:13:28.883Z,23.10
2018-08-18T06:16:11.690Z,23.20
2018-08-18T06:18:52.841Z,23.40
2018-08-18T06:21:33.570Z,23.80
2018-08-18T06:24:14.118Z,23.90
2018-08-18T06:26:54.797Z,23.80
2018-08-18T06:29:36.438Z,23.60
2018-08-18T06:32:18.364Z,23.50
2018-08-18T06:34:59.439Z,23.60
2018-08-18T06:37:39.967Z,23.90
2018-08-18T06:40:21.395Z,24.10
2018-08-18T06:43:01.993Z,24.30
2018-08-18T06:45:42.713Z,24.40
2018-08-18T06:48:24.575Z,24.60
2018-08-18T06:51:05.675Z,24.80
2018-08-18T06:53:47.352Z,25.10
2018-08-18T06:56:28.913Z,25.50
2018-08-18T06:59:10.781Z,26.00
2018-08-18T07:01:52.193Z,26.40
2018-08-18T07:04:33.870Z,26.70
2018-08-18T07:07:15.189Z,26.90
2018-08-18T07:09:56.626Z,26.90
2018-08-18T07:12:37.269Z,27.00
2018-08-18T07:15:18.971Z,27.00
2018-08-18T07:17:59.893Z,26.90
2018-08-18T07:20:41.770Z,26.80
2018-08-18T07:23:22.890Z,26.70
2018-08-18T07:26:04.042Z,26.60
2018-08-18T07:28:45.435Z,26.60
2018-08-18T07:31:26.908Z,26.50
2018-08-18T07:34:08.305Z,26.40
2018-08-18T07:36:49.824Z,26.40
2018-08-18T07:39:30.432Z,26.50
2018-08-18T07:42:11.787Z,26.60
2018-08-18T07:44:52.564Z,26.60
2018-08-18T07:47:35.947Z,26.40
2018-08-18T07:50:16.621Z,26.20
2018-08-18T07:52:57.549Z,26.10
2018-08-18T07:55:38.538Z,26.20
2018-08-18T07:58:21.308Z,26.20
2018-08-18T08:01:02.595Z,26.40
2018-08-18T08:03:44.093Z,26.50
2018-08-18T08:06:25.609Z,26.60
2018-08-18T08:09:06.212Z,26.70
2018-08-18T08:11:46.928Z,27.00
2018-08-18T08:14:27.918Z,27.50
2018-08-18T08:17:09.834Z,27.90
2018-08-18T08:19:50.966Z,28.40
2018-08-18T08:22:31.586Z,29.00
2018-08-18T08:25:13.047Z,29.40
2018-08-18T08:27:53.894Z,29.80
2018-08-18T08:30:34.526Z,30.20
2018-08-18T08:33:18.611Z,30.50
2018-08-18T08:35:59.840Z,30.80
2018-08-18T08:38:40.506Z,30.90
2018-08-18T08:41:21.093Z,31.00
2018-08-18T08:44:02.009Z,31.10
2018-08-18T08:46:47.429Z,31.10
2018-08-18T08:49:28.996Z,31.10
2018-08-18T08:52:09.676Z,31.10
2018-08-18T08:54:51.113Z,31.00
2018-08-18T08:57:32.275Z,31.00
2018-08-18T09:00:13.591Z,31.00
2018-08-18T09:02:54.919Z,31.00
2018-08-18T09:05:35.545Z,31.00
2018-08-18T09:08:17.049Z,31.10
2018-08-18T09:10:57.758Z,31.10
2018-08-18T09:13:38.433Z,31.10
2018-08-18T09:16:19.505Z,31.10
2018-08-18T09:19:01.072Z,31.10
2018-08-18T09:21:48.440Z,31.00
2018-08-18T09:24:31.625Z,31.00
2018-08-18T09:27:12.562Z,31.00
2018-08-18T09:29:53.156Z,31.00
2018-08-18T09:32:33.682Z,31.10
2018-08-18T09:35:14.389Z,31.30
2018-08-18T09:37:58.629Z,31.50
2018-08-18T09:40:39.659Z,31.60
2018-08-18T09:43:23.250Z,31.80
2018-08-18T09:46:03.909Z,31.80
2018-08-18T09:48:45.183Z,31.80
2018-08-18T09:51:25.895Z,31.90
2018-08-18T09:54:06.889Z,31.80
2018-08-18T09:56:48.571Z,31.70
2018-08-18T09:59:30.196Z,31.60
2018-08-18T10:02:11.285Z,31.60
2018-08-18T10:04:52.037Z,31.50
2018-08-18T10:07:32.694Z,31.50
2018-08-18T10:10:13.454Z,31.50
2018-08-18T10:12:54.174Z,31.40
2018-08-18T10:15:35.875Z,31.20
2018-08-18T10:18:17.782Z,31.00
2018-08-18T10:20:59.017Z,30.90
2018-08-18T10:23:40.497Z,30.80
2018-08-18T10:26:21.147Z,30.70
2018-08-18T10:29:05.896Z,30.70
2018-08-18T10:31:51.790Z,30.60
2018-08-18T10:34:34.040Z,30.60
2018-08-18T10:37:14.532Z,30.50
2018-08-18T10:40:02.828Z,30.50
2018-08-18T10:42:44.371Z,30.50
2018-08-18T10:45:25.157Z,30.50
2018-08-18T10:48:06.759Z,30.60
2018-08-18T10:50:48.133Z,30.60
2018-08-18T10:53:28.907Z,30.70
2018-08-18T10:56:10.300Z,30.70
2018-08-18T10:58:51.030Z,30.70
2018-08-18T11:01:32.599Z,30.60
2018-08-18T11:04:13.958Z,30.50
2018-08-18T11:06:54.689Z,30.50
2018-08-18T11:09:35.190Z,30.50
2018-08-18T11:12:15.737Z,30.50
2018-08-18T11:15:00.812Z,30.70
2018-08-18T11:17:42.106Z,30.70
2018-08-18T11:20:25.422Z,30.70
2018-08-18T11:23:09.375Z,30.70
2018-08-18T11:25:54.073Z,30.70
2018-08-18T11:28:35.634Z,30.80
2018-08-18T11:31:16.802Z,30.70
2018-08-18T11:33:57.671Z,30.70
2018-08-18T11:36:39.253Z,30.70
2018-08-18T11:39:20.516Z,30.80
2018-08-18T11:42:01.690Z,30.90
2018-08-18T11:44:43.149Z,30.90
2018-08-18T11:47:23.874Z,31.00
2018-08-18T11:50:05.362Z,30.90
2018-08-18T11:52:50.376Z,30.90
2018-08-18T11:55:31.438Z,30.90
2018-08-18T11:58:13.565Z,30.90
2018-08-18T12:01:00.113Z,30.80
2018-08-18T12:03:41.508Z,30.60
2018-08-18T12:06:22.213Z,30.50
2018-08-18T12:09:02.809Z,30.40
2018-08-18T12:11:44.308Z,30.30
2018-08-18T12:14:24.966Z,30.30
2018-08-18T12:17:06.248Z,30.30
2018-08-18T12:19:49.198Z,30.40
2018-08-18T12:22:29.947Z,30.60
2018-08-18T12:25:11.538Z,30.70
2018-08-18T12:27:53.148Z,30.80
2018-08-18T12:30:34.763Z,30.90
2018-08-18T12:33:19.323Z,30.90
2018-08-18T12:36:00.817Z,30.90
2018-08-18T12:38:41.455Z,30.80
2018-08-18T12:41:22.053Z,30.80
2018-08-18T12:44:03.501Z,30.80
2018-08-18T12:46:49.182Z,30.80
2018-08-18T12:49:29.837Z,30.90
2018-08-18T12:52:10.431Z,30.80
2018-08-18T12:54:51.298Z,30.70
2018-08-18T12:57:32.691Z,30.60
2018-08-18T13:00:13.388Z,30.60
2018-08-18T13:02:55.422Z,30.50
2018-08-18T13:05:36.555Z,30.50
2018-08-18T13:08:17.409Z,30.40
2018-08-18T13:10:58.799Z,30.30
2018-08-18T13:13:40.245Z,30.30
2018-08-18T13:16:20.900Z,30.40
2018-08-18T13:19:01.590Z,30.40
2018-08-18T13:21:42.433Z,30.50
2018-08-18T13:24:23.877Z,30.60
2018-08-18T13:27:04.535Z,30.60
2018-08-18T13:29:45.918Z,30.70
2018-08-18T13:32:26.794Z,30.70
2018-08-18T13:35:08.184Z,30.80
2018-08-18T13:37:49.715Z,30.80
2018-08-18T13:40:30.304Z,30.80
2018-08-18T13:43:11.912Z,30.90
2018-08-18T13:45:54.033Z,30.90
2018-08-18T13:48:34.999Z,31.00
2018-08-18T13:51:16.339Z,31.00
2018-08-18T13:53:56.877Z,31.00
2018-08-18T13:56:37.574Z,30.90
2018-08-18T13:59:18.266Z,30.90
2018-08-18T14:01:58.874Z,30.90
2018-08-18T14:04:39.534Z,31.00
2018-08-18T14:07:20.286Z,31.00
2018-08-18T14:10:02.519Z,31.00
2018-08-18T14:12:43.394Z,30.90
2018-08-18T14:15:24.094Z,30.90
2018-08-18T14:18:11.224Z,30.90
2018-08-18T14:20:58.091Z,31.00
2018-08-18T14:23:38.839Z,31.10
2018-08-18T14:26:20.289Z,31.10
2018-08-18T14:29:01.009Z,31.20
2018-08-18T14:31:41.538Z,31.10
2018-08-18T14:34:22.441Z,31.00
2018-08-18T14:37:12.184Z,31.00
2018-08-18T14:39:53.738Z,31.00
2018-08-18T14:42:34.290Z,31.10
2018-08-18T14:45:16.527Z,31.00
2018-08-18T14:47:57.605Z,31.10
2018-08-18T14:50:38.262Z,31.00
2018-08-18T14:53:25.199Z,30.90
2018-08-18T14:56:06.244Z,30.80
2018-08-18T14:58:46.968Z,30.70
2018-08-18T15:01:28.334Z,30.70
2018-08-18T15:04:08.920Z,30.60
2018-08-18T15:06:50.412Z,30.40
2018-08-18T15:09:31.322Z,30.10
2018-08-18T15:12:12.438Z,29.90
2018-08-18T15:14:53.077Z,29.60
2018-08-18T15:17:33.765Z,29.40
2018-08-18T15:20:15.139Z,29.20
2018-08-18T15:22:55.892Z,29.00
2018-08-18T15:25:38.296Z,28.80
2018-08-18T15:28:19.897Z,28.60
2018-08-18T15:31:00.504Z,28.50
2018-08-18T15:33:41.233Z,28.40
2018-08-18T15:36:23.251Z,28.30
2018-08-18T15:39:05.292Z,28.20
2018-08-18T15:41:48.195Z,28.10
2018-08-18T15:44:29.502Z,28.10
2018-08-18T15:47:10.121Z,28.00
2018-08-18T15:49:50.848Z,28.00
2018-08-18T15:52:34.542Z,28.00
2018-08-18T15:55:15.329Z,27.90
2018-08-18T15:57:56.853Z,27.90
2018-08-18T16:00:38.346Z,28.10
2018-08-18T16:03:19.720Z,28.10
2018-08-18T16:06:00.551Z,28.20
2018-08-18T16:08:41.174Z,28.30
2018-08-18T16:11:21.709Z,28.40
2018-08-18T16:14:02.434Z,28.40
2018-08-18T16:16:48.676Z,28.40
2018-08-18T16:19:29.715Z,28.40
2018-08-18T16:22:10.908Z,28.40
2018-08-18T16:24:51.900Z,28.40
2018-08-18T16:27:33.058Z,28.40
2018-08-18T16:30:14.747Z,28.50
2018-08-18T16:33:00.258Z,28.50
2018-08-18T16:35:41.828Z,28.50
2018-08-18T16:38:23.536Z,28.40
2018-08-18T16:41:04.959Z,28.40
2018-08-18T16:43:45.511Z,28.30
2018-08-18T16:46:30.919Z,28.30
2018-08-18T16:49:12.047Z,28.20
2018-08-18T16:51:57.060Z,28.10
2018-08-18T16:54:38.297Z,28.10
2018-08-18T16:57:19.189Z,28.00
2018-08-18T16:59:59.822Z,27.90
2018-08-18T17:02:41.267Z,27.90
2018-08-18T17:05:22.621Z,27.80
2018-08-18T17:08:03.158Z,27.70
2018-08-18T17:10:44.775Z,27.70
2018-08-18T17:13:25.479Z,27.60
2018-08-18T17:16:07.254Z,27.60
2018-08-18T17:18:48.605Z,27.60
2018-08-18T17:21:30.227Z,27.50
2018-08-18T17:24:11.604Z,27.50
2018-08-18T17:26:52.238Z,27.40
2018-08-18T17:29:34.715Z,27.40
2018-08-18T17:32:15.204Z,27.40
2018-08-18T17:34:55.873Z,27.30
2018-08-18T17:37:37.202Z,27.20
2018-08-18T17:40:18.744Z,27.10
2018-08-18T17:43:00.183Z,27.10
2018-08-18T17:45:44.872Z,27.00
2018-08-18T17:48:26.440Z,27.00
2018-08-18T17:51:07.121Z,27.00
2018-08-18T17:53:55.124Z,26.90
2018-08-18T17:56:36.412Z,26.90
2018-08-18T17:59:17.849Z,26.80
2018-08-18T18:01:59.390Z,26.70
2018-08-18T18:04:40.236Z,26.50
2018-08-18T18:07:20.801Z,26.40
2018-08-18T18:10:02.249Z,26.30
2018-08-18T18:12:43.716Z,26.20
2018-08-18T18:15:24.457Z,26.10
2018-08-18T18:18:05.281Z,26.10
2018-08-18T18:20:48.849Z,26.00
2018-08-18T18:23:30.802Z,25.90
2018-08-18T18:26:11.699Z,25.80
2018-08-18T18:28:53.005Z,25.80
2018-08-18T18:31:33.985Z,25.70
2018-08-18T18:34:14.599Z,25.70
2018-08-18T18:36:56.062Z,25.70
2018-08-18T18:39:37.577Z,25.70
2018-08-18T18:42:18.186Z,25.80
2018-08-18T18:44:59.523Z,25.80
2018-08-18T18:47:41.081Z,25.70
2018-08-18T18:50:24.166Z,25.70
2018-08-18T18:53:04.758Z,25.60
2018-08-18T18:56:00.591Z,25.60
2018-08-18T18:58:42.029Z,25.60
2018-08-18T19:01:22.631Z,25.50
2018-08-18T19:04:03.154Z,25.40
2018-08-18T19:06:45.173Z,25.40
2018-08-18T19:09:26.535Z,25.40
2018-08-18T19:12:07.965Z,25.40
2018-08-18T19:14:49.530Z,25.40
2018-08-18T19:17:30.045Z,25.40
2018-08-18T19:20:12.726Z,25.50
2018-08-18T19:22:57.456Z,25.40
2018-08-18T19:25:40.059Z,25.40
2018-08-18T19:28:22.887Z,25.50
2018-08-18T19:31:03.598Z,25.50
2018-08-18T19:33:45.138Z,25.50
2018-08-18T19:36:26.675Z,25.40
2018-08-18T19:39:08.184Z,25.40
2018-08-18T19:41:49.777Z,25.40
2018-08-18T19:44:31.550Z,25.40
2018-08-18T19:47:13.275Z,25.40
2018-08-18T19:49:54.607Z,25.40
2018-08-18T19:52:36.324Z,25.30
2018-08-18T19:55:17.448Z,25.30
2018-08-18T19:57:58.036Z,25.30
2018-08-18T20:00:38.574Z,25.20
2018-08-18T20:03:19.825Z,25.20
2018-08-18T20:06:00.907Z,25.10
2018-08-18T20:08:42.405Z,25.10
2018-08-18T20:11:23.822Z,25.10
2018-08-18T20:14:04.607Z,25.00
2018-08-18T20:16:46.082Z,25.00
2018-08-18T20:19:26.777Z,25.00
2018-08-18T20:22:08.186Z,25.00
2018-08-18T20:24:49.894Z,25.00
2018-08-18T20:27:31.503Z,24.90
2018-08-18T20:30:13.777Z,24.90
2018-08-18T20:32:54.720Z,24.80
2018-08-18T20:35:35.681Z,24.80
2018-08-18T20:38:16.757Z,24.80
2018-08-18T20:40:57.525Z,24.80
2018-08-18T20:43:38.413Z,24.80
2018-08-18T20:46:19.769Z,24.80
2018-08-18T20:49:00.378Z,24.70
2018-08-18T20:51:41.004Z,24.70
2018-08-18T20:54:22.489Z,24.70
2018-08-18T20:57:03.956Z,24.70
2018-08-18T20:59:44.501Z,24.60
2018-08-18T21:02:25.261Z,24.60
2018-08-18T21:05:06.696Z,24.50
2018-08-18T21:07:47.501Z,24.50
2018-08-18T21:10:28.753Z,24.50
2018-08-18T21:13:10.224Z,24.50
2018-08-18T21:15:50.992Z,24.40
2018-08-18T21:18:32.405Z,24.40
2018-08-18T21:21:17.003Z,24.50
2018-08-18T21:23:57.573Z,24.60
2018-08-18T21:26:38.058Z,24.60
2018-08-18T21:29:18.926Z,24.70
2018-08-18T21:32:00.357Z,24.70
2018-08-18T21:34:46.036Z,24.70
2018-08-18T21:37:26.664Z,24.70
2018-08-18T21:40:08.193Z,24.70
2018-08-18T21:42:48.713Z,24.70
2018-08-18T21:45:34.916Z,24.70
2018-08-18T21:48:15.777Z,24.70
2018-08-18T21:50:56.447Z,24.70
2018-08-18T21:53:37.744Z,24.70
2018-08-18T21:56:18.655Z,24.70
2018-08-18T21:59:00.064Z,24.70
2018-08-18T22:01:40.713Z,24.70
2018-08-18T22:04:22.208Z,24.60
2018-08-18T22:07:02.905Z,24.60
2018-08-18T22:09:44.385Z,24.60
2018-08-18T22:12:25.106Z,24.60
2018-08-18T22:15:23.125Z,24.60
2018-08-18T22:18:04.408Z,24.60
2018-08-18T22:20:45.048Z,24.60
2018-08-18T22:23:25.690Z,24.60
2018-08-18T22:26:11.937Z,24.60
2018-08-18T22:28:52.615Z,24.60
2018-08-18T22:31:33.926Z,24.50
2018-08-18T22:34:14.946Z,24.50
2018-08-18T22:36:55.641Z,24.40
2018-08-18T22:39:37.083Z,24.40
2018-08-18T22:42:17.761Z,24.30
2018-08-18T22:44:58.600Z,24.30
2018-08-18T22:47:39.895Z,24.30
2018-08-18T22:50:21.414Z,24.30
2018-08-18T22:53:02.918Z,24.20
2018-08-18T22:55:43.652Z,24.20
2018-08-18T22:58:25.104Z,24.10
2018-08-18T23:01:05.822Z,24.00
2018-08-18T23:03:47.060Z,24.00
2018-08-18T23:06:28.394Z,24.10
2018-08-18T23:09:09.684Z,24.10
2018-08-18T23:11:50.256Z,24.10
2018-08-18T23:14:34.079Z,24.10
2018-08-18T23:17:14.744Z,24.20
2018-08-18T23:19:56.367Z,24.20
2018-08-18T23:22:41.965Z,24.20
2018-08-18T23:25:24.894Z,24.10
2018-08-18T23:28:05.949Z,24.10
2018-08-18T23:30:46.565Z,24.20
2018-08-18T23:33:27.121Z,24.20
2018-08-18T23:36:08.582Z,24.30
2018-08-18T23:38:55.217Z,24.30
2018-08-18T23:41:36.730Z,24.30
2018-08-18T23:44:17.372Z,24.40
2018-08-18T23:46:58.890Z,24.40
2018-08-18T23:49:39.719Z,24.40
2018-08-18T23:52:20.986Z,24.40
2018-08-18T23:55:01.700Z,24.50
2018-08-18T23:57:42.490Z,24.50
